sim
Sign-in with your pilot id or email,
or register
Callsign
Passwort

Schedule Details

Flight Number: OEO3513
Departure: Budapest Ferenc Liszt International Airport (LHBP) at 06:35
Arrival: Munich Airport (EDDM) at 08:00

Weather Information
Getting current METAR information for LHBP 241000Z VRB05KT 9999 SCT025 22/15 Q1011 NOSIG
Getting current METAR information for EDDM 241020Z 25009KT 9999 FEW026 19/14 Q1010 NOSIG

Schedule Frequency

Route Map